createdAt,value
2022-11-15T00:01:17.908Z,6.15
2022-11-15T00:03:45.358Z,6.40
2022-11-15T00:06:12.536Z,5.90
2022-11-15T00:08:39.412Z,6.55
2022-11-15T00:11:06.330Z,5.60
2022-11-15T00:13:33.698Z,5.15
2022-11-15T00:16:02.443Z,5.63
2022-11-15T00:18:30.433Z,4.95
2022-11-15T00:21:07.715Z,5.43
2022-11-15T00:23:35.084Z,4.90
2022-11-15T00:26:02.351Z,5.22
2022-11-15T00:28:29.273Z,4.85
2022-11-15T00:31:05.931Z,4.68
2022-11-15T00:33:34.555Z,4.82
2022-11-15T00:36:11.794Z,4.93
2022-11-15T00:38:40.841Z,4.80
2022-11-15T00:41:09.936Z,5.15
2022-11-15T00:43:37.488Z,4.53
2022-11-15T00:46:04.653Z,4.65
2022-11-15T00:48:32.369Z,4.47
2022-11-15T00:50:59.419Z,4.43
2022-11-15T00:53:26.283Z,4.30
2022-11-15T00:55:53.455Z,4.43
2022-11-15T00:58:20.799Z,4.60
2022-11-15T01:00:47.708Z,4.75
2022-11-15T01:03:14.637Z,3.95
2022-11-15T01:05:41.763Z,4.00
2022-11-15T01:08:15.402Z,3.85
2022-11-15T01:10:42.484Z,4.22
2022-11-15T01:13:09.767Z,3.85
2022-11-15T01:15:41.418Z,3.35
2022-11-15T01:18:08.968Z,3.55
2022-11-15T01:20:40.716Z,3.25
2022-11-15T01:23:07.606Z,3.83
2022-11-15T01:25:34.608Z,3.90
2022-11-15T01:28:01.586Z,3.33
2022-11-15T01:30:28.578Z,3.20
2022-11-15T01:32:55.487Z,4.10
2022-11-15T01:35:22.508Z,3.50
2022-11-15T01:37:49.417Z,3.15
2022-11-15T01:40:16.533Z,3.55
2022-11-15T01:42:43.415Z,2.85
2022-11-15T01:45:19.076Z,3.20
2022-11-15T01:47:55.491Z,3.70
2022-11-15T01:50:31.472Z,3.60
2022-11-15T01:52:58.444Z,3.95
2022-11-15T01:55:28.394Z,3.75
2022-11-15T01:58:01.053Z,3.72
2022-11-15T02:00:29.016Z,4.43
2022-11-15T02:02:56.238Z,4.03
2022-11-15T02:05:23.504Z,3.47
2022-11-15T02:07:51.080Z,3.47
2022-11-15T02:10:24.418Z,3.45
2022-11-15T02:12:52.207Z,3.65
2022-11-15T02:15:19.391Z,3.83
2022-11-15T02:18:25.626Z,3.30
2022-11-15T02:21:20.483Z,3.40
2022-11-15T02:24:28.806Z,4.10
2022-11-15T02:27:49.457Z,3.33
2022-11-15T02:30:41.814Z,3.85
2022-11-15T02:33:32.333Z,4.07
2022-11-15T02:36:04.175Z,3.65
2022-11-15T02:39:08.390Z,3.33
2022-11-15T02:41:48.368Z,3.65
2022-11-15T02:44:34.475Z,3.28
2022-11-15T02:47:17.262Z,3.92
2022-11-15T02:49:57.354Z,3.95
2022-11-15T02:52:28.380Z,4.25
2022-11-15T02:54:58.014Z,3.92
2022-11-15T02:57:58.423Z,3.50
2022-11-15T03:00:25.403Z,3.80
2022-11-15T03:03:13.281Z,4.10
2022-11-15T03:06:25.079Z,4.30
2022-11-15T03:09:02.055Z,4.15
2022-11-15T03:11:34.359Z,4.00
2022-11-15T03:14:22.463Z,4.63
2022-11-15T03:17:23.075Z,3.40
2022-11-15T03:19:54.635Z,4.50
2022-11-15T03:22:25.749Z,3.40
2022-11-15T03:24:57.526Z,4.07
2022-11-15T03:27:29.627Z,3.78
2022-11-15T03:30:09.015Z,3.50
2022-11-15T03:32:51.191Z,4.25
2022-11-15T03:35:24.923Z,3.80
2022-11-15T03:38:16.939Z,3.25
2022-11-15T03:40:55.778Z,3.42
2022-11-15T03:43:37.650Z,3.30
2022-11-15T03:46:27.032Z,3.70
2022-11-15T03:49:06.053Z,4.00
2022-11-15T03:51:33.067Z,3.65
2022-11-15T03:53:59.963Z,3.63
2022-11-15T03:56:26.780Z,3.80
2022-11-15T03:58:53.641Z,3.75
2022-11-15T04:01:20.478Z,3.60
2022-11-15T04:03:47.397Z,3.78
2022-11-15T04:06:14.301Z,3.20
2022-11-15T04:08:41.108Z,3.50
2022-11-15T04:11:08.072Z,3.80
2022-11-15T04:13:35.099Z,3.00
2022-11-15T04:16:01.998Z,3.45
2022-11-15T04:18:28.954Z,3.08
2022-11-15T04:21:14.163Z,3.28
2022-11-15T04:23:59.663Z,3.55
2022-11-15T04:26:26.662Z,3.35
2022-11-15T04:29:12.099Z,3.50
2022-11-15T04:31:38.968Z,3.28
2022-11-15T04:34:05.832Z,3.42
2022-11-15T04:36:51.115Z,3.33
2022-11-15T04:39:18.036Z,3.53
2022-11-15T04:41:45.039Z,3.28
2022-11-15T04:44:11.875Z,3.63
2022-11-15T04:46:38.807Z,3.05
2022-11-15T04:49:05.755Z,3.50
2022-11-15T04:51:32.650Z,3.15
2022-11-15T04:53:59.466Z,3.47
2022-11-15T04:56:26.401Z,3.08
2022-11-15T04:58:53.246Z,3.55
2022-11-15T05:01:20.285Z,2.50
2022-11-15T05:04:05.619Z,2.80
2022-11-15T05:06:32.699Z,2.60
2022-11-15T05:08:59.744Z,3.33
2022-11-15T05:11:28.240Z,2.42
2022-11-15T05:13:55.700Z,2.40
2022-11-15T05:16:22.752Z,2.65
2022-11-15T05:18:55.522Z,2.50
2022-11-15T05:21:23.488Z,2.45
2022-11-15T05:23:50.614Z,2.30
2022-11-15T05:26:18.933Z,2.42
2022-11-15T05:28:46.172Z,2.28
2022-11-15T05:31:16.877Z,2.15
2022-11-15T05:33:45.302Z,2.47
2022-11-15T05:36:20.888Z,2.38
2022-11-15T05:38:49.266Z,2.05
2022-11-15T05:41:18.390Z,2.00
2022-11-15T05:43:46.070Z,1.98
2022-11-15T05:46:15.127Z,2.15
2022-11-15T05:48:46.684Z,1.98
2022-11-15T05:51:15.379Z,1.90
2022-11-15T05:53:42.635Z,2.05
2022-11-15T05:56:10.596Z,2.13
2022-11-15T05:58:38.384Z,2.05
2022-11-15T06:01:05.826Z,2.15
2022-11-15T06:03:33.051Z,2.10
2022-11-15T06:06:00.069Z,2.03
2022-11-15T06:08:26.968Z,1.67
2022-11-15T06:10:53.944Z,2.65
2022-11-15T06:13:20.855Z,2.30
2022-11-15T06:15:47.704Z,2.40
2022-11-15T06:18:14.585Z,2.75
2022-11-15T06:20:41.501Z,2.08
2022-11-15T06:23:08.320Z,2.38
2022-11-15T06:25:35.155Z,2.35
2022-11-15T06:28:01.990Z,2.22
2022-11-15T06:30:28.876Z,2.90
2022-11-15T06:33:06.541Z,2.60
2022-11-15T06:35:36.262Z,3.25
2022-11-15T06:38:06.316Z,3.15
2022-11-15T06:40:36.333Z,3.03
2022-11-15T06:43:04.615Z,3.28
2022-11-15T06:45:32.163Z,3.60
2022-11-15T06:47:59.673Z,4.22
2022-11-15T06:50:27.265Z,3.50
2022-11-15T06:52:54.216Z,3.70
2022-11-15T06:55:21.107Z,3.85
2022-11-15T06:57:50.492Z,3.55
2022-11-15T07:00:20.238Z,3.92
2022-11-15T07:02:47.960Z,3.78
2022-11-15T07:05:16.471Z,3.28
2022-11-15T07:07:43.502Z,4.18
2022-11-15T07:10:10.934Z,3.65
2022-11-15T07:12:37.867Z,4.10
2022-11-15T07:15:05.484Z,3.10
2022-11-15T07:17:33.011Z,3.40
2022-11-15T07:19:59.891Z,3.72
2022-11-15T07:22:26.878Z,2.85
2022-11-15T07:24:53.850Z,3.13
2022-11-15T07:27:20.702Z,3.10
2022-11-15T07:29:47.655Z,2.63
2022-11-15T07:32:14.476Z,3.30
2022-11-15T07:34:41.302Z,3.38
2022-11-15T07:37:08.454Z,3.13
2022-11-15T07:39:35.382Z,2.70
2022-11-15T07:42:20.583Z,3.53
2022-11-15T07:44:47.612Z,3.42
2022-11-15T07:47:14.814Z,3.53
2022-11-15T07:49:41.897Z,2.88
2022-11-15T07:52:08.810Z,3.00
2022-11-15T07:54:35.669Z,3.20
2022-11-15T07:57:06.986Z,2.88
2022-11-15T07:59:35.981Z,3.70
2022-11-15T08:02:03.413Z,3.40
2022-11-15T08:04:30.306Z,2.75
2022-11-15T08:06:58.334Z,3.10
2022-11-15T08:09:25.284Z,2.70
2022-11-15T08:11:52.093Z,3.20
2022-11-15T08:14:19.015Z,2.88
2022-11-15T08:16:45.952Z,3.22
2022-11-15T08:19:12.768Z,3.08
2022-11-15T08:21:39.595Z,3.10
2022-11-15T08:24:07.055Z,2.67
2022-11-15T08:26:33.889Z,3.13
2022-11-15T08:29:00.768Z,2.90
2022-11-15T08:31:27.711Z,3.58
2022-11-15T08:33:55.007Z,3.25
2022-11-15T08:36:22.014Z,3.20
2022-11-15T08:38:48.968Z,2.65
2022-11-15T08:41:34.153Z,2.67
2022-11-15T08:44:00.992Z,2.70
2022-11-15T08:46:27.889Z,2.40
2022-11-15T08:48:55.003Z,2.50
2022-11-15T08:51:21.889Z,2.95
2022-11-15T08:53:49.003Z,2.95
2022-11-15T08:56:16.517Z,2.58
2022-11-15T08:58:43.707Z,2.55
2022-11-15T09:01:21.691Z,2.38
2022-11-15T09:03:48.817Z,2.80
2022-11-15T09:06:16.556Z,2.80
2022-11-15T09:08:51.911Z,2.55
2022-11-15T09:11:21.325Z,2.25
2022-11-15T09:13:48.329Z,2.50
2022-11-15T09:16:16.202Z,1.98
2022-11-15T09:18:43.243Z,2.10
2022-11-15T09:21:10.920Z,2.30
2022-11-15T09:23:38.698Z,2.13
2022-11-15T09:26:06.824Z,2.47
2022-11-15T09:28:35.023Z,2.33
2022-11-15T09:31:05.113Z,2.80
2022-11-15T09:33:32.261Z,2.45
2022-11-15T09:36:10.274Z,1.85
2022-11-15T09:38:37.348Z,2.60
2022-11-15T09:41:13.281Z,2.67
2022-11-15T09:44:07.783Z,2.28
2022-11-15T09:47:21.894Z,4.50
2022-11-15T09:49:57.867Z,2.58
2022-11-15T09:52:25.947Z,2.40
2022-11-15T09:54:55.495Z,3.03
2022-11-15T09:58:09.459Z,4.22
2022-11-15T10:03:27.385Z,2.50
2022-11-15T10:05:59.198Z,2.35
2022-11-15T10:08:38.925Z,1.73
2022-11-15T10:14:06.158Z,1.60
2022-11-15T10:17:34.625Z,1.65
2022-11-15T10:20:37.107Z,1.33
2022-11-15T10:23:12.307Z,1.50
2022-11-15T10:25:39.454Z,1.10
2022-11-15T10:28:30.383Z,1.20
2022-11-15T10:31:00.829Z,1.17
2022-11-15T10:33:30.649Z,1.10
2022-11-15T10:36:09.673Z,0.90
2022-11-15T10:38:51.641Z,1.10
2022-11-15T10:41:32.522Z,1.33
2022-11-15T10:44:29.981Z,1.25
2022-11-15T10:46:56.776Z,1.10
2022-11-15T10:49:32.093Z,1.33
2022-11-15T10:52:21.184Z,1.10
2022-11-15T10:54:58.046Z,1.42
2022-11-15T10:57:53.787Z,1.00
2022-11-15T11:00:20.548Z,1.10
2022-11-15T11:03:01.962Z,1.10
2022-11-15T11:05:42.794Z,1.20
2022-11-15T11:08:12.739Z,1.27
2022-11-15T11:11:01.268Z,1.00
2022-11-15T11:13:40.863Z,1.17
2022-11-15T11:16:55.806Z,1.10
2022-11-15T11:19:54.407Z,1.10
2022-11-15T11:22:50.886Z,1.00
2022-11-15T11:26:06.524Z,1.10
2022-11-15T11:28:43.510Z,1.10
2022-11-15T11:31:28.290Z,1.35
2022-11-15T11:34:16.773Z,1.20
2022-11-15T11:37:13.806Z,0.95
2022-11-15T11:39:46.126Z,0.95
2022-11-15T11:42:37.793Z,1.33
2022-11-15T11:45:35.665Z,1.00
2022-11-15T11:48:08.111Z,1.00
2022-11-15T11:50:39.089Z,1.05
2022-11-15T11:53:32.672Z,1.00
2022-11-15T11:56:07.383Z,0.90
2022-11-15T11:58:44.820Z,1.02
2022-11-15T12:01:17.528Z,0.90
2022-11-15T12:03:58.069Z,1.10
2022-11-15T12:06:43.552Z,1.20
2022-11-15T12:09:22.797Z,1.33
2022-11-15T12:11:49.571Z,1.00
2022-11-15T12:14:51.207Z,1.27
2022-11-15T12:17:24.102Z,1.02
2022-11-15T12:19:53.250Z,0.88
2022-11-15T12:22:55.272Z,0.90
2022-11-15T12:25:38.319Z,0.80
2022-11-15T12:29:05.907Z,0.82
2022-11-15T12:31:35.199Z,0.88
2022-11-15T12:34:30.333Z,0.90
2022-11-15T12:36:57.479Z,0.88
2022-11-15T12:40:20.899Z,0.80
2022-11-15T12:43:12.105Z,0.85
2022-11-15T12:45:42.929Z,1.50
2022-11-15T12:48:18.925Z,1.30
2022-11-15T12:50:51.925Z,0.82
2022-11-15T12:53:28.351Z,0.90
2022-11-15T12:56:04.468Z,0.68
2022-11-15T12:59:03.333Z,0.60
2022-11-15T13:01:33.300Z,0.70
2022-11-15T13:04:15.410Z,0.70
2022-11-15T13:06:50.527Z,0.70
2022-11-15T13:09:38.553Z,0.85
2022-11-15T13:12:28.363Z,0.60
2022-11-15T13:14:59.860Z,0.75
2022-11-15T13:17:30.712Z,1.15
2022-11-15T13:20:04.660Z,1.17
2022-11-15T13:22:53.266Z,1.02
2022-11-15T13:25:40.994Z,0.73
2022-11-15T13:28:10.861Z,0.90
2022-11-15T13:30:38.912Z,0.80
2022-11-15T13:33:17.999Z,0.70
2022-11-15T13:35:50.324Z,0.70
2022-11-15T13:38:34.608Z,0.90
2022-11-15T13:41:21.232Z,0.68
2022-11-15T13:43:51.129Z,0.80
2022-11-15T13:46:23.745Z,0.70
2022-11-15T13:51:44.897Z,0.80
2022-11-15T13:54:22.201Z,1.00
2022-11-15T13:56:56.818Z,0.80
2022-11-15T13:59:29.494Z,0.60
2022-11-15T14:04:30.879Z,0.77
2022-11-15T14:09:39.541Z,0.73
2022-11-15T14:12:51.747Z,0.95
2022-11-15T14:15:39.080Z,0.70
2022-11-15T14:18:07.378Z,0.80
2022-11-15T14:20:37.343Z,0.93
2022-11-15T14:23:19.893Z,0.63
2022-11-15T14:25:58.686Z,0.70
2022-11-15T14:28:25.466Z,0.85
2022-11-15T14:30:56.200Z,0.68
2022-11-15T14:33:33.199Z,0.70
2022-11-15T14:36:16.840Z,0.70
2022-11-15T14:38:44.047Z,0.80
2022-11-15T14:41:20.562Z,0.95
2022-11-15T14:43:47.768Z,0.85
2022-11-15T14:46:14.611Z,0.80
2022-11-15T14:48:41.446Z,0.80
2022-11-15T14:51:19.685Z,1.13
2022-11-15T14:53:47.767Z,0.90
2022-11-15T14:56:15.601Z,0.80
2022-11-15T14:58:43.020Z,1.00
2022-11-15T15:01:24.647Z,1.13
2022-11-15T15:03:53.115Z,0.80
2022-11-15T15:06:20.530Z,1.00
2022-11-15T15:08:51.306Z,0.85
2022-11-15T15:11:24.907Z,1.15
2022-11-15T15:13:53.351Z,0.80
2022-11-15T15:16:20.655Z,0.90
2022-11-15T15:18:47.556Z,0.73
2022-11-15T15:21:25.317Z,0.80
2022-11-15T15:23:55.137Z,0.90
2022-11-15T15:26:23.663Z,0.90
2022-11-15T15:28:52.160Z,0.70
2022-11-15T15:31:19.594Z,1.10
2022-11-15T15:33:46.477Z,1.15
2022-11-15T15:36:15.588Z,1.20
2022-11-15T15:38:42.553Z,1.17
2022-11-15T15:41:13.310Z,1.35
2022-11-15T15:43:40.451Z,1.20
2022-11-15T15:46:17.001Z,0.95
2022-11-15T15:48:44.398Z,1.88
2022-11-15T15:51:18.729Z,1.50
2022-11-15T15:53:48.481Z,1.27
2022-11-15T15:56:15.473Z,1.60
2022-11-15T15:58:42.403Z,1.08
2022-11-15T16:01:09.321Z,1.33
2022-11-15T16:03:36.145Z,1.00
2022-11-15T16:06:05.262Z,0.90
2022-11-15T16:08:47.657Z,1.27
2022-11-15T16:11:19.079Z,1.55
2022-11-15T16:13:45.915Z,1.73
2022-11-15T16:16:14.729Z,2.00
2022-11-15T16:18:41.607Z,1.20
2022-11-15T16:21:09.461Z,1.60
2022-11-15T16:23:36.338Z,1.90
2022-11-15T16:26:04.391Z,2.05
2022-11-15T16:28:34.116Z,1.30
2022-11-15T16:31:06.027Z,1.33
2022-11-15T16:33:33.988Z,1.10
2022-11-15T16:36:01.645Z,1.10
2022-11-15T16:38:28.505Z,1.08
2022-11-15T16:40:55.817Z,1.00
2022-11-15T16:43:22.755Z,1.10
2022-11-15T16:45:51.691Z,1.05
2022-11-15T16:48:28.810Z,0.88
2022-11-15T16:50:59.624Z,1.00
2022-11-15T16:53:28.088Z,1.80
2022-11-15T16:55:58.282Z,1.30
2022-11-15T16:58:25.563Z,1.38
2022-11-15T17:00:54.541Z,1.88
2022-11-15T17:03:23.535Z,1.95
2022-11-15T17:05:50.907Z,1.60
2022-11-15T17:08:18.492Z,2.33
2022-11-15T17:10:45.363Z,2.35
2022-11-15T17:13:15.502Z,2.10
2022-11-15T17:15:42.683Z,3.50
2022-11-15T17:18:14.417Z,2.15
2022-11-15T17:20:42.267Z,5.35
2022-11-15T17:23:15.534Z,2.08
2022-11-15T17:25:42.992Z,1.67
2022-11-15T17:28:11.172Z,1.83
2022-11-15T17:30:43.039Z,1.77
2022-11-15T17:33:09.937Z,1.85
2022-11-15T17:35:36.794Z,1.80
2022-11-15T17:38:03.637Z,1.42
2022-11-15T17:40:30.702Z,2.08
2022-11-15T17:42:57.563Z,1.65
2022-11-15T17:45:24.381Z,1.50
2022-11-15T17:47:51.250Z,1.70
2022-11-15T17:50:18.465Z,1.50
2022-11-15T17:52:45.293Z,4.07
2022-11-15T17:55:12.179Z,2.00
2022-11-15T17:57:39.052Z,1.75
2022-11-15T18:00:06.981Z,1.80
2022-11-15T18:02:34.049Z,1.70
2022-11-15T18:05:00.961Z,2.13
2022-11-15T18:07:28.005Z,1.58
2022-11-15T18:09:54.923Z,2.10
2022-11-15T18:12:21.843Z,2.40
2022-11-15T18:14:48.713Z,3.60
2022-11-15T18:17:15.611Z,5.38
2022-11-15T18:19:42.433Z,3.60
2022-11-15T18:22:10.261Z,2.78
2022-11-15T18:24:42.624Z,3.20
2022-11-15T18:27:09.650Z,2.73
2022-11-15T18:29:37.941Z,3.83
2022-11-15T18:32:10.880Z,2.97
2022-11-15T18:34:38.049Z,8.68
2022-11-15T18:37:05.041Z,7.28
2022-11-15T18:39:32.208Z,9.38
2022-11-15T18:41:59.404Z,2.75
2022-11-15T18:44:28.553Z,3.00
2022-11-15T18:46:55.470Z,11.60
2022-11-15T18:49:22.604Z,10.50
2022-11-15T18:51:49.716Z,3.90
2022-11-15T18:54:17.614Z,2.53
2022-11-15T18:56:45.649Z,2.92
2022-11-15T18:59:12.972Z,4.38
2022-11-15T19:01:43.871Z,1.98
2022-11-15T19:04:18.637Z,3.70
2022-11-15T19:06:48.371Z,2.88
2022-11-15T19:09:17.556Z,3.63
2022-11-15T19:11:46.792Z,3.20
2022-11-15T19:14:18.026Z,2.75
2022-11-15T19:16:52.074Z,2.20
2022-11-15T19:19:22.784Z,3.03
2022-11-15T19:21:49.825Z,14.85
2022-11-15T19:24:16.743Z,6.40
2022-11-15T19:26:44.983Z,4.03
2022-11-15T19:29:12.220Z,6.03
2022-11-15T19:31:39.287Z,4.60
2022-11-15T19:34:07.696Z,6.47
2022-11-15T19:36:43.567Z,4.32
2022-11-15T19:39:15.330Z,3.42
2022-11-15T19:41:43.779Z,6.00
2022-11-15T19:44:12.312Z,2.47
2022-11-15T19:46:40.132Z,2.40
2022-11-15T19:49:10.334Z,2.53
2022-11-15T19:51:37.634Z,2.15
2022-11-15T19:54:08.677Z,1.90
2022-11-15T19:56:36.912Z,1.75
2022-11-15T19:59:05.152Z,1.95
2022-11-15T20:01:36.386Z,2.42
2022-11-15T20:04:04.131Z,2.30
2022-11-15T20:06:34.764Z,2.20
2022-11-15T20:09:01.641Z,2.58
2022-11-15T20:11:28.732Z,2.03
2022-11-15T20:14:02.135Z,2.33
2022-11-15T20:16:29.731Z,2.47
2022-11-15T20:18:57.039Z,2.20
2022-11-15T20:21:24.616Z,2.25
2022-11-15T20:23:52.263Z,2.17
2022-11-15T20:26:20.531Z,2.80
2022-11-15T20:28:48.464Z,2.05
2022-11-15T20:31:16.336Z,2.63
2022-11-15T20:33:43.419Z,2.35
2022-11-15T20:36:15.952Z,2.05
2022-11-15T20:38:44.117Z,2.50
2022-11-15T20:41:12.801Z,2.90
2022-11-15T20:43:43.374Z,3.25
2022-11-15T20:46:12.485Z,2.03
2022-11-15T20:48:40.225Z,2.33
2022-11-15T20:51:18.348Z,3.15
2022-11-15T20:53:47.177Z,1.52
2022-11-15T20:56:18.327Z,2.00
2022-11-15T20:58:46.073Z,1.90
2022-11-15T21:01:15.110Z,2.30
2022-11-15T21:03:42.341Z,2.78
2022-11-15T21:06:10.536Z,2.92
2022-11-15T21:09:00.963Z,2.53
2022-11-15T21:11:47.033Z,2.20
2022-11-15T21:14:14.048Z,2.72
2022-11-15T21:16:41.152Z,2.88
2022-11-15T21:19:08.433Z,3.33
2022-11-15T21:21:39.053Z,2.97
2022-11-15T21:24:08.811Z,2.50
2022-11-15T21:26:36.413Z,2.33
2022-11-15T21:29:04.598Z,2.80
2022-11-15T21:31:32.091Z,2.60
2022-11-15T21:34:02.590Z,3.15
2022-11-15T21:36:30.228Z,3.25
2022-11-15T21:38:57.037Z,2.88
2022-11-15T21:41:24.234Z,3.00
2022-11-15T21:43:51.150Z,2.90
2022-11-15T21:46:18.206Z,2.20
2022-11-15T21:48:45.170Z,2.40
2022-11-15T21:51:12.890Z,2.85
2022-11-15T21:53:39.879Z,3.20
2022-11-15T21:56:07.403Z,2.35
2022-11-15T21:58:35.308Z,2.30
2022-11-15T22:01:34.792Z,2.38
2022-11-15T22:04:01.853Z,2.47
2022-11-15T22:06:29.598Z,2.60
2022-11-15T22:08:56.481Z,2.15
2022-11-15T22:11:23.410Z,2.90
2022-11-15T22:13:50.315Z,2.53
2022-11-15T22:16:17.284Z,1.70
2022-11-15T22:18:44.356Z,1.90
2022-11-15T22:21:15.881Z,1.90
2022-11-15T22:23:43.964Z,2.00
2022-11-15T22:26:14.368Z,2.30
2022-11-15T22:28:41.917Z,2.10
2022-11-15T22:31:10.321Z,1.70
2022-11-15T22:33:37.707Z,2.38
2022-11-15T22:36:06.633Z,1.95
2022-11-15T22:38:33.962Z,2.60
2022-11-15T22:41:01.089Z,2.20
2022-11-15T22:43:28.526Z,2.35
2022-11-15T22:45:57.744Z,2.10
2022-11-15T22:48:31.211Z,1.92
2022-11-15T22:50:59.302Z,2.10
2022-11-15T22:53:27.446Z,2.70
2022-11-15T22:56:00.115Z,2.53
2022-11-15T22:58:29.481Z,2.67
2022-11-15T23:00:59.426Z,2.28
2022-11-15T23:03:27.628Z,2.47
2022-11-15T23:05:55.098Z,2.58
2022-11-15T23:08:23.486Z,2.50
2022-11-15T23:11:09.335Z,2.67
2022-11-15T23:13:36.369Z,3.05
2022-11-15T23:16:48.177Z,2.72
2022-11-15T23:19:15.133Z,2.60
2022-11-15T23:22:05.171Z,2.55
2022-11-15T23:24:33.684Z,2.90
2022-11-15T23:27:04.620Z,3.03
2022-11-15T23:29:31.579Z,3.00
2022-11-15T23:32:16.641Z,2.80
2022-11-15T23:34:45.486Z,2.85
2022-11-15T23:37:15.269Z,3.00
2022-11-15T23:39:42.334Z,4.18
2022-11-15T23:42:19.470Z,3.15
2022-11-15T23:44:49.909Z,3.22
2022-11-15T23:47:19.041Z,3.30
2022-11-15T23:49:46.107Z,3.33
2022-11-15T23:52:15.347Z,4.57
2022-11-15T23:54:42.726Z,3.28
2022-11-15T23:57:12.032Z,4.00
2022-11-15T23:59:40.834Z,3.85
